sensor_id;sensor_type;location;lat;lon;timestamp;pressure;altitude;pressure_sealevel;temperature;humidity
64053;BME280;50299;49.524;8.536;2023-06-22T00:00:01;100477.84;;;19.48;61.33
64053;BME280;50299;49.524;8.536;2023-06-22T00:02:34;100485.13;;;19.12;61.05
64053;BME280;50299;49.524;8.536;2023-06-22T00:05:00;100476.38;;;19.20;61.10
64053;BME280;50299;49.524;8.536;2023-06-22T00:07:27;100482.25;;;19.49;60.68
64053;BME280;50299;49.524;8.536;2023-06-22T00:09:53;100488.19;;;19.44;61.32
64053;BME280;50299;49.524;8.536;2023-06-22T00:12:20;100490.31;;;19.54;60.11
64053;BME280;50299;49.524;8.536;2023-06-22T00:14:46;100496.44;;;19.70;59.75
64053;BME280;50299;49.524;8.536;2023-06-22T00:17:12;100495.25;;;19.79;59.21
64053;BME280;50299;49.524;8.536;2023-06-22T00:19:39;100503.31;;;19.84;58.95
64053;BME280;50299;49.524;8.536;2023-06-22T00:22:06;100517.38;;;19.87;58.85
64053;BME280;50299;49.524;8.536;2023-06-22T00:24:33;100520.00;;;19.62;60.62
64053;BME280;50299;49.524;8.536;2023-06-22T00:26:59;100536.81;;;19.59;61.23
64053;BME280;50299;49.524;8.536;2023-06-22T00:29:25;100556.81;;;18.79;62.21
64053;BME280;50299;49.524;8.536;2023-06-22T00:31:52;100566.50;;;18.85;62.05
64053;BME280;50299;49.524;8.536;2023-06-22T00:34:18;100569.28;;;17.95;65.24
64053;BME280;50299;49.524;8.536;2023-06-22T00:36:45;100553.38;;;18.59;63.52
64053;BME280;50299;49.524;8.536;2023-06-22T00:39:12;100570.34;;;19.07;62.37
64053;BME280;50299;49.524;8.536;2023-06-22T00:41:38;100594.97;;;19.28;59.85
64053;BME280;50299;49.524;8.536;2023-06-22T00:44:05;100655.72;;;19.20;60.11
64053;BME280;50299;49.524;8.536;2023-06-22T00:46:33;100726.75;;;19.02;60.65
64053;BME280;50299;49.524;8.536;2023-06-22T00:48:59;100775.16;;;18.72;61.84
64053;BME280;50299;49.524;8.536;2023-06-22T00:51:26;100793.97;;;18.48;62.67
64053;BME280;50299;49.524;8.536;2023-06-22T00:53:53;100801.66;;;18.55;63.18
64053;BME280;50299;49.524;8.536;2023-06-22T00:56:20;100774.72;;;18.96;61.88
64053;BME280;50299;49.524;8.536;2023-06-22T00:58:51;100662.00;;;19.07;64.41
64053;BME280;50299;49.524;8.536;2023-06-22T01:01:23;100553.25;;;17.92;77.50
64053;BME280;50299;49.524;8.536;2023-06-22T01:03:50;100536.13;;;17.21;78.57
64053;BME280;50299;49.524;8.536;2023-06-22T01:06:22;100522.69;;;16.65;80.39
64053;BME280;50299;49.524;8.536;2023-06-22T01:09:15;100461.34;;;15.04;91.72
64053;BME280;50299;49.524;8.536;2023-06-22T01:11:45;100419.78;;;14.96;98.42
64053;BME280;50299;49.524;8.536;2023-06-22T01:14:20;100411.22;;;15.04;99.41
64053;BME280;50299;49.524;8.536;2023-06-22T01:16:49;100473.47;;;15.79;94.05
64053;BME280;50299;49.524;8.536;2023-06-22T01:19:49;100515.50;;;16.64;91.75
64053;BME280;50299;49.524;8.536;2023-06-22T01:22:29;100532.56;;;17.01;86.52
64053;BME280;50299;49.524;8.536;2023-06-22T01:25:13;100529.13;;;16.46;87.74
64053;BME280;50299;49.524;8.536;2023-06-22T01:27:56;100518.47;;;16.94;84.65
64053;BME280;50299;49.524;8.536;2023-06-22T01:30:28;100523.09;;;17.06;84.23
64053;BME280;50299;49.524;8.536;2023-06-22T01:32:57;100526.69;;;17.29;83.32
64053;BME280;50299;49.524;8.536;2023-06-22T01:35:24;100519.81;;;17.46;84.93
64053;BME280;50299;49.524;8.536;2023-06-22T01:37:51;100529.97;;;17.58;84.11
64053;BME280;50299;49.524;8.536;2023-06-22T01:40:19;100533.69;;;17.65;84.62
64053;BME280;50299;49.524;8.536;2023-06-22T01:42:46;100529.50;;;17.79;86.38
64053;BME280;50299;49.524;8.536;2023-06-22T01:45:14;100533.22;;;17.86;85.76
64053;BME280;50299;49.524;8.536;2023-06-22T01:47:41;100540.53;;;17.94;84.27
64053;BME280;50299;49.524;8.536;2023-06-22T01:50:08;100533.41;;;18.00;84.42
64053;BME280;50299;49.524;8.536;2023-06-22T01:52:35;100530.25;;;18.06;84.44
64053;BME280;50299;49.524;8.536;2023-06-22T01:55:01;100533.91;;;18.06;84.79
64053;BME280;50299;49.524;8.536;2023-06-22T01:57:28;100528.31;;;18.06;84.24
64053;BME280;50299;49.524;8.536;2023-06-22T02:00:33;100532.94;;;17.95;84.05
64053;BME280;50299;49.524;8.536;2023-06-22T02:03:05;100543.78;;;17.47;80.15
64053;BME280;50299;49.524;8.536;2023-06-22T02:05:38;100535.00;;;17.25;81.84
64053;BME280;50299;49.524;8.536;2023-06-22T02:08:13;100530.66;;;17.28;84.50
64053;BME280;50299;49.524;8.536;2023-06-22T02:10:43;100540.09;;;17.43;86.10
64053;BME280;50299;49.524;8.536;2023-06-22T02:13:12;100540.22;;;17.50;83.77
64053;BME280;50299;49.524;8.536;2023-06-22T02:15:40;100537.84;;;17.52;84.05
64053;BME280;50299;49.524;8.536;2023-06-22T02:18:06;100542.38;;;17.60;86.58
64053;BME280;50299;49.524;8.536;2023-06-22T02:20:36;100537.63;;;17.61;81.60
64053;BME280;50299;49.524;8.536;2023-06-22T02:23:03;100534.66;;;17.50;81.16
64053;BME280;50299;49.524;8.536;2023-06-22T02:25:29;100538.88;;;17.40;84.30
64053;BME280;50299;49.524;8.536;2023-06-22T02:27:56;100533.78;;;17.46;85.64
64053;BME280;50299;49.524;8.536;2023-06-22T02:30:22;100519.13;;;17.53;84.47
64053;BME280;50299;49.524;8.536;2023-06-22T02:32:49;100520.16;;;17.21;82.55
64053;BME280;50299;49.524;8.536;2023-06-22T02:35:15;100536.25;;;17.28;84.17
64053;BME280;50299;49.524;8.536;2023-06-22T02:37:42;100542.53;;;17.44;85.12
64053;BME280;50299;49.524;8.536;2023-06-22T02:40:09;100536.63;;;17.49;85.26
64053;BME280;50299;49.524;8.536;2023-06-22T02:42:37;100531.72;;;17.43;80.86
64053;BME280;50299;49.524;8.536;2023-06-22T02:45:04;100519.59;;;17.35;82.36
64053;BME280;50299;49.524;8.536;2023-06-22T02:47:31;100517.06;;;17.49;83.01
64053;BME280;50299;49.524;8.536;2023-06-22T02:49:57;100507.94;;;17.53;79.96
64053;BME280;50299;49.524;8.536;2023-06-22T02:52:24;100497.44;;;17.46;79.42
64053;BME280;50299;49.524;8.536;2023-06-22T02:54:50;100491.13;;;17.26;79.23
64053;BME280;50299;49.524;8.536;2023-06-22T02:57:17;100492.53;;;16.70;81.77
64053;BME280;50299;49.524;8.536;2023-06-22T02:59:43;100491.66;;;16.66;85.49
64053;BME280;50299;49.524;8.536;2023-06-22T03:02:10;100495.44;;;16.77;84.41
64053;BME280;50299;49.524;8.536;2023-06-22T03:04:37;100485.22;;;16.85;82.49
64053;BME280;50299;49.524;8.536;2023-06-22T03:07:04;100493.53;;;16.82;82.42
64053;BME280;50299;49.524;8.536;2023-06-22T03:09:32;100488.19;;;16.73;81.82
64053;BME280;50299;49.524;8.536;2023-06-22T03:11:58;100488.81;;;16.86;83.66
64053;BME280;50299;49.524;8.536;2023-06-22T03:14:25;100490.50;;;16.90;82.64
64053;BME280;50299;49.524;8.536;2023-06-22T03:16:51;100488.66;;;16.75;83.42
64053;BME280;50299;49.524;8.536;2023-06-22T03:19:18;100490.81;;;16.85;84.70
64053;BME280;50299;49.524;8.536;2023-06-22T03:21:45;100482.94;;;16.91;83.79
64053;BME280;50299;49.524;8.536;2023-06-22T03:24:12;100475.72;;;16.90;85.29
64053;BME280;50299;49.524;8.536;2023-06-22T03:26:38;100472.25;;;16.73;79.50
64053;BME280;50299;49.524;8.536;2023-06-22T03:29:05;100477.28;;;16.06;87.58
64053;BME280;50299;49.524;8.536;2023-06-22T03:31:31;100479.28;;;15.90;91.61
64053;BME280;50299;49.524;8.536;2023-06-22T03:33:58;100480.91;;;15.08;90.33
64053;BME280;50299;49.524;8.536;2023-06-22T03:36:24;100482.69;;;15.00;92.29
64053;BME280;50299;49.524;8.536;2023-06-22T03:38:51;100470.50;;;15.37;90.73
64053;BME280;50299;49.524;8.536;2023-06-22T03:41:17;100460.31;;;15.60;87.86
64053;BME280;50299;49.524;8.536;2023-06-22T03:43:44;100452.34;;;15.78;88.50
64053;BME280;50299;49.524;8.536;2023-06-22T03:46:10;100465.03;;;16.11;87.35
64053;BME280;50299;49.524;8.536;2023-06-22T03:48:37;100472.94;;;16.47;85.51
64053;BME280;50299;49.524;8.536;2023-06-22T03:51:04;100479.41;;;16.71;83.64
64053;BME280;50299;49.524;8.536;2023-06-22T03:53:30;100472.69;;;16.98;83.59
64053;BME280;50299;49.524;8.536;2023-06-22T03:55:57;100477.47;;;17.21;83.21
64053;BME280;50299;49.524;8.536;2023-06-22T03:58:23;100475.78;;;17.39;80.74
64053;BME280;50299;49.524;8.536;2023-06-22T04:00:51;100471.28;;;17.58;80.41
64053;BME280;50299;49.524;8.536;2023-06-22T04:03:19;100475.47;;;17.71;78.42
64053;BME280;50299;49.524;8.536;2023-06-22T04:05:47;100474.00;;;17.81;78.46
64053;BME280;50299;49.524;8.536;2023-06-22T04:08:14;100485.38;;;17.95;78.95
64053;BME280;50299;49.524;8.536;2023-06-22T04:10:40;100471.13;;;18.04;76.72
64053;BME280;50299;49.524;8.536;2023-06-22T04:13:09;100465.72;;;17.88;75.51
64053;BME280;50299;49.524;8.536;2023-06-22T04:15:36;100459.88;;;18.00;75.40
64053;BME280;50299;49.524;8.536;2023-06-22T04:18:03;100462.34;;;17.75;77.68
64053;BME280;50299;49.524;8.536;2023-06-22T04:20:31;100468.00;;;17.79;78.70
64053;BME280;50299;49.524;8.536;2023-06-22T04:22:59;100476.25;;;17.98;77.67
64053;BME280;50299;49.524;8.536;2023-06-22T04:25:25;100470.22;;;17.96;75.52
64053;BME280;50299;49.524;8.536;2023-06-22T04:27:54;100467.81;;;17.94;78.49
64053;BME280;50299;49.524;8.536;2023-06-22T04:30:21;100469.22;;;17.81;77.14
64053;BME280;50299;49.524;8.536;2023-06-22T04:32:48;100456.88;;;17.56;79.88
64053;BME280;50299;49.524;8.536;2023-06-22T04:35:24;100463.13;;;17.45;77.61
64053;BME280;50299;49.524;8.536;2023-06-22T04:37:53;100462.16;;;17.61;76.26
64053;BME280;50299;49.524;8.536;2023-06-22T04:40:22;100462.25;;;17.41;77.80
64053;BME280;50299;49.524;8.536;2023-06-22T04:42:49;100465.84;;;17.68;77.19
64053;BME280;50299;49.524;8.536;2023-06-22T04:45:20;100469.81;;;17.67;76.96
64053;BME280;50299;49.524;8.536;2023-06-22T04:47:47;100472.16;;;17.92;77.81
64053;BME280;50299;49.524;8.536;2023-06-22T04:50:14;100471.16;;;18.07;75.87
64053;BME280;50299;49.524;8.536;2023-06-22T04:52:41;100462.81;;;17.81;76.63
64053;BME280;50299;49.524;8.536;2023-06-22T04:55:08;100461.06;;;17.42;78.35
64053;BME280;50299;49.524;8.536;2023-06-22T04:57:35;100448.22;;;17.64;77.34
64053;BME280;50299;49.524;8.536;2023-06-22T05:00:02;100451.09;;;17.18;79.46
64053;BME280;50299;49.524;8.536;2023-06-22T05:02:39;100447.50;;;16.30;84.04
64053;BME280;50299;49.524;8.536;2023-06-22T05:05:06;100444.25;;;16.70;83.66
64053;BME280;50299;49.524;8.536;2023-06-22T05:07:34;100438.81;;;16.35;86.24
64053;BME280;50299;49.524;8.536;2023-06-22T05:10:02;100441.47;;;16.70;82.96
64053;BME280;50299;49.524;8.536;2023-06-22T05:12:29;100438.78;;;17.23;80.90
64053;BME280;50299;49.524;8.536;2023-06-22T05:14:56;100428.72;;;17.41;78.61
64053;BME280;50299;49.524;8.536;2023-06-22T05:17:25;100431.97;;;18.04;76.57
64053;BME280;50299;49.524;8.536;2023-06-22T05:19:52;100428.63;;;18.24;77.25
64053;BME280;50299;49.524;8.536;2023-06-22T05:22:21;100433.28;;;18.13;74.48
64053;BME280;50299;49.524;8.536;2023-06-22T05:24:47;100428.28;;;18.30;73.76
64053;BME280;50299;49.524;8.536;2023-06-22T05:27:14;100429.50;;;17.98;74.85
64053;BME280;50299;49.524;8.536;2023-06-22T05:29:41;100429.00;;;18.57;76.49
64053;BME280;50299;49.524;8.536;2023-06-22T05:32:11;100425.09;;;19.09;73.39
64053;BME280;50299;49.524;8.536;2023-06-22T05:34:38;100420.81;;;19.92;70.18
64053;BME280;50299;49.524;8.536;2023-06-22T05:37:05;100427.81;;;19.50;67.27
64053;BME280;50299;49.524;8.536;2023-06-22T05:39:31;100418.31;;;19.76;67.01
64053;BME280;50299;49.524;8.536;2023-06-22T05:41:58;100427.44;;;19.55;66.34
64053;BME280;50299;49.524;8.536;2023-06-22T05:44:24;100420.06;;;20.09;67.14
64053;BME280;50299;49.524;8.536;2023-06-22T05:46:51;100422.06;;;20.05;66.61
64053;BME280;50299;49.524;8.536;2023-06-22T05:49:17;100412.50;;;20.13;66.71
64053;BME280;50299;49.524;8.536;2023-06-22T05:51:44;100417.41;;;19.58;64.29
64053;BME280;50299;49.524;8.536;2023-06-22T05:54:11;100424.88;;;20.05;64.80
64053;BME280;50299;49.524;8.536;2023-06-22T05:56:39;100426.25;;;20.54;64.18
64053;BME280;50299;49.524;8.536;2023-06-22T05:59:06;100435.13;;;21.28;62.05
64053;BME280;50299;49.524;8.536;2023-06-22T06:01:33;100422.63;;;20.57;60.97
64053;BME280;50299;49.524;8.536;2023-06-22T06:04:03;100428.13;;;20.14;62.90
64053;BME280;50299;49.524;8.536;2023-06-22T06:06:30;100430.72;;;20.94;60.45
64053;BME280;50299;49.524;8.536;2023-06-22T06:08:57;100415.44;;;21.28;60.49
64053;BME280;50299;49.524;8.536;2023-06-22T06:11:24;100417.44;;;21.45;58.79
64053;BME280;50299;49.524;8.536;2023-06-22T06:13:52;100427.59;;;22.34;59.13
64053;BME280;50299;49.524;8.536;2023-06-22T06:16:19;100421.25;;;22.12;54.90
64053;BME280;50299;49.524;8.536;2023-06-22T06:18:45;100434.31;;;21.41;56.05
64053;BME280;50299;49.524;8.536;2023-06-22T06:21:13;100433.81;;;21.86;56.76
64053;BME280;50299;49.524;8.536;2023-06-22T06:23:39;100445.91;;;22.67;57.19
64053;BME280;50299;49.524;8.536;2023-06-22T06:26:06;100420.97;;;23.18;53.68
64053;BME280;50299;49.524;8.536;2023-06-22T06:28:36;100393.97;;;22.02;54.69
64053;BME280;50299;49.524;8.536;2023-06-22T06:31:03;100392.88;;;23.03;53.58
64053;BME280;50299;49.524;8.536;2023-06-22T06:33:33;100407.09;;;22.89;53.72
64053;BME280;50299;49.524;8.536;2023-06-22T06:36:00;100400.97;;;23.43;49.40
64053;BME280;50299;49.524;8.536;2023-06-22T06:38:30;100409.00;;;23.82;51.18
64053;BME280;50299;49.524;8.536;2023-06-22T06:40:58;100407.28;;;24.22;49.57
64053;BME280;50299;49.524;8.536;2023-06-22T06:43:25;100401.31;;;24.17;47.40
64053;BME280;50299;49.524;8.536;2023-06-22T06:45:51;100396.84;;;23.88;48.98
64053;BME280;50299;49.524;8.536;2023-06-22T06:48:18;100401.25;;;24.51;47.71
64053;BME280;50299;49.524;8.536;2023-06-22T06:50:44;100404.47;;;22.64;51.50
64053;BME280;50299;49.524;8.536;2023-06-22T06:53:11;100405.59;;;23.63;49.22
64053;BME280;50299;49.524;8.536;2023-06-22T06:55:37;100406.19;;;24.70;48.91
64053;BME280;50299;49.524;8.536;2023-06-22T06:58:04;100407.47;;;25.40;45.24
64053;BME280;50299;49.524;8.536;2023-06-22T07:00:33;100406.94;;;25.68;43.40
64053;BME280;50299;49.524;8.536;2023-06-22T07:03:02;100412.28;;;25.82;43.43
64053;BME280;50299;49.524;8.536;2023-06-22T07:05:28;100405.06;;;26.01;41.15
64053;BME280;50299;49.524;8.536;2023-06-22T07:07:56;100397.34;;;26.38;42.33
64053;BME280;50299;49.524;8.536;2023-06-22T07:10:23;100399.34;;;26.57;44.58
64053;BME280;50299;49.524;8.536;2023-06-22T07:12:49;100402.19;;;26.74;39.53
64053;BME280;50299;49.524;8.536;2023-06-22T07:15:15;100386.16;;;25.95;41.21
64053;BME280;50299;49.524;8.536;2023-06-22T07:17:42;100379.22;;;26.16;41.27
64053;BME280;50299;49.524;8.536;2023-06-22T07:20:09;100370.03;;;26.28;40.57
64053;BME280;50299;49.524;8.536;2023-06-22T07:22:43;100365.44;;;26.70;39.30
64053;BME280;50299;49.524;8.536;2023-06-22T07:25:10;100364.69;;;26.99;39.54
64053;BME280;50299;49.524;8.536;2023-06-22T07:27:43;100362.69;;;26.67;41.17
64053;BME280;50299;49.524;8.536;2023-06-22T07:30:11;100373.81;;;26.90;41.12
64053;BME280;50299;49.524;8.536;2023-06-22T07:32:39;100374.53;;;26.62;39.95
64053;BME280;50299;49.524;8.536;2023-06-22T07:35:05;100370.28;;;27.02;37.89
64053;BME280;50299;49.524;8.536;2023-06-22T07:37:33;100376.13;;;25.90;41.14
64053;BME280;50299;49.524;8.536;2023-06-22T07:40:01;100375.06;;;25.64;40.59
64053;BME280;50299;49.524;8.536;2023-06-22T07:42:30;100381.66;;;25.77;40.27
64053;BME280;50299;49.524;8.536;2023-06-22T07:44:59;100373.78;;;26.41;42.24
64053;BME280;50299;49.524;8.536;2023-06-22T07:47:26;100372.69;;;26.19;40.67
64053;BME280;50299;49.524;8.536;2023-06-22T07:49:55;100368.63;;;24.73;41.77
64053;BME280;50299;49.524;8.536;2023-06-22T07:52:24;100379.94;;;24.97;42.66
64053;BME280;50299;49.524;8.536;2023-06-22T07:54:51;100375.22;;;24.63;43.96
64053;BME280;50299;49.524;8.536;2023-06-22T07:57:18;100378.16;;;26.09;42.18
64053;BME280;50299;49.524;8.536;2023-06-22T07:59:45;100382.50;;;26.14;38.88
64053;BME280;50299;49.524;8.536;2023-06-22T08:02:12;100386.00;;;26.22;39.57
64053;BME280;50299;49.524;8.536;2023-06-22T08:04:38;100390.22;;;26.99;40.53
64053;BME280;50299;49.524;8.536;2023-06-22T08:07:05;100381.91;;;27.53;38.41
64053;BME280;50299;49.524;8.536;2023-06-22T08:09:32;100376.16;;;27.70;38.90
64053;BME280;50299;49.524;8.536;2023-06-22T08:11:59;100364.56;;;28.19;38.17
64053;BME280;50299;49.524;8.536;2023-06-22T08:14:26;100352.44;;;27.47;35.49
64053;BME280;50299;49.524;8.536;2023-06-22T08:16:53;100359.22;;;26.75;38.11
64053;BME280;50299;49.524;8.536;2023-06-22T08:19:20;100357.91;;;25.91;39.42
64053;BME280;50299;49.524;8.536;2023-06-22T08:21:46;100339.59;;;26.32;38.31
64053;BME280;50299;49.524;8.536;2023-06-22T08:24:13;100347.88;;;27.08;37.75
64053;BME280;50299;49.524;8.536;2023-06-22T08:26:39;100359.00;;;25.57;40.99
64053;BME280;50299;49.524;8.536;2023-06-22T08:29:06;100360.03;;;27.38;38.67
64053;BME280;50299;49.524;8.536;2023-06-22T08:31:35;100355.25;;;28.31;36.98
64053;BME280;50299;49.524;8.536;2023-06-22T08:34:01;100353.22;;;27.19;37.52
64053;BME280;50299;49.524;8.536;2023-06-22T08:36:28;100346.59;;;28.35;37.33
64053;BME280;50299;49.524;8.536;2023-06-22T08:38:59;100332.66;;;28.88;33.73
64053;BME280;50299;49.524;8.536;2023-06-22T08:41:27;100331.47;;;28.63;34.39
64053;BME280;50299;49.524;8.536;2023-06-22T08:43:54;100328.88;;;28.56;34.33
64053;BME280;50299;49.524;8.536;2023-06-22T08:46:20;100342.41;;;28.26;35.01
64053;BME280;50299;49.524;8.536;2023-06-22T08:48:52;100343.31;;;28.62;35.07
64053;BME280;50299;49.524;8.536;2023-06-22T08:51:18;100338.63;;;28.55;34.70
64053;BME280;50299;49.524;8.536;2023-06-22T08:53:45;100337.94;;;29.68;34.30
64053;BME280;50299;49.524;8.536;2023-06-22T08:56:11;100331.84;;;29.00;32.42
64053;BME280;50299;49.524;8.536;2023-06-22T08:58:38;100327.63;;;28.19;32.64
64053;BME280;50299;49.524;8.536;2023-06-22T09:01:04;100331.47;;;29.33;33.76
64053;BME280;50299;49.524;8.536;2023-06-22T09:03:31;100334.16;;;29.71;31.46
64053;BME280;50299;49.524;8.536;2023-06-22T09:05:59;100324.56;;;29.56;31.30
64053;BME280;50299;49.524;8.536;2023-06-22T09:08:25;100329.91;;;29.75;29.86
64053;BME280;50299;49.524;8.536;2023-06-22T09:10:52;100339.78;;;29.40;33.55
64053;BME280;50299;49.524;8.536;2023-06-22T09:13:18;100347.53;;;30.45;32.14
64053;BME280;50299;49.524;8.536;2023-06-22T09:15:45;100343.84;;;31.13;31.17
64053;BME280;50299;49.524;8.536;2023-06-22T09:18:13;100334.31;;;31.62;30.29
64053;BME280;50299;49.524;8.536;2023-06-22T09:20:39;100333.22;;;31.78;28.88
64053;BME280;50299;49.524;8.536;2023-06-22T09:23:06;100325.38;;;32.30;28.03
64053;BME280;50299;49.524;8.536;2023-06-22T09:25:32;100319.09;;;32.50;28.95
64053;BME280;50299;49.524;8.536;2023-06-22T09:27:59;100309.84;;;32.55;27.15
64053;BME280;50299;49.524;8.536;2023-06-22T09:30:25;100305.72;;;32.80;29.66
64053;BME280;50299;49.524;8.536;2023-06-22T09:32:55;100301.81;;;32.92;27.23
64053;BME280;50299;49.524;8.536;2023-06-22T09:35:22;100296.19;;;32.98;27.40
64053;BME280;50299;49.524;8.536;2023-06-22T09:37:48;100291.13;;;33.31;26.94
64053;BME280;50299;49.524;8.536;2023-06-22T09:40:15;100288.56;;;33.18;26.83
64053;BME280;50299;49.524;8.536;2023-06-22T09:42:43;100278.66;;;33.05;27.78
64053;BME280;50299;49.524;8.536;2023-06-22T09:45:10;100278.94;;;32.68;28.62
64053;BME280;50299;49.524;8.536;2023-06-22T09:47:38;100267.94;;;32.90;26.09
64053;BME280;50299;49.524;8.536;2023-06-22T09:50:05;100273.31;;;32.98;26.96
64053;BME280;50299;49.524;8.536;2023-06-22T09:52:32;100262.59;;;33.52;26.68
64053;BME280;50299;49.524;8.536;2023-06-22T09:55:13;100249.47;;;33.45;25.93
64053;BME280;50299;49.524;8.536;2023-06-22T09:57:42;100234.09;;;33.04;26.02
64053;BME280;50299;49.524;8.536;2023-06-22T10:00:09;100231.47;;;33.00;25.54
64053;BME280;50299;49.524;8.536;2023-06-22T10:02:38;100227.94;;;33.20;28.05
64053;BME280;50299;49.524;8.536;2023-06-22T10:05:05;100220.22;;;33.11;26.80
64053;BME280;50299;49.524;8.536;2023-06-22T10:07:32;100228.91;;;33.61;25.48
64053;BME280;50299;49.524;8.536;2023-06-22T10:09:58;100224.19;;;33.29;24.56
64053;BME280;50299;49.524;8.536;2023-06-22T10:12:27;100228.72;;;33.50;25.81
64053;BME280;50299;49.524;8.536;2023-06-22T10:14:53;100219.84;;;33.63;24.53
64053;BME280;50299;49.524;8.536;2023-06-22T10:17:20;100223.16;;;33.91;25.33
64053;BME280;50299;49.524;8.536;2023-06-22T10:19:46;100218.53;;;34.14;24.72
64053;BME280;50299;49.524;8.536;2023-06-22T10:22:13;100215.31;;;34.27;24.88
64053;BME280;50299;49.524;8.536;2023-06-22T10:24:39;100204.28;;;33.99;24.58
64053;BME280;50299;49.524;8.536;2023-06-22T10:27:11;100201.59;;;33.96;25.73
64053;BME280;50299;49.524;8.536;2023-06-22T10:29:38;100214.09;;;34.13;26.28
64053;BME280;50299;49.524;8.536;2023-06-22T10:32:05;100205.47;;;33.78;25.48
64053;BME280;50299;49.524;8.536;2023-06-22T10:34:31;100195.16;;;34.01;26.53
64053;BME280;50299;49.524;8.536;2023-06-22T10:36:58;100184.56;;;34.07;25.67
64053;BME280;50299;49.524;8.536;2023-06-22T10:39:24;100177.75;;;34.25;25.21
64053;BME280;50299;49.524;8.536;2023-06-22T10:41:51;100171.59;;;34.32;25.26
64053;BME280;50299;49.524;8.536;2023-06-22T10:44:17;100174.13;;;33.89;25.50
64053;BME280;50299;49.524;8.536;2023-06-22T10:46:43;100159.91;;;33.80;25.77
64053;BME280;50299;49.524;8.536;2023-06-22T10:49:10;100168.44;;;33.74;26.34
64053;BME280;50299;49.524;8.536;2023-06-22T10:51:36;100168.72;;;33.76;25.65
64053;BME280;50299;49.524;8.536;2023-06-22T10:54:03;100156.53;;;33.81;25.36
64053;BME280;50299;49.524;8.536;2023-06-22T10:56:30;100162.53;;;33.98;25.71
64053;BME280;50299;49.524;8.536;2023-06-22T10:58:59;100155.19;;;34.32;24.50
64053;BME280;50299;49.524;8.536;2023-06-22T11:01:26;100160.75;;;34.62;24.96
64053;BME280;50299;49.524;8.536;2023-06-22T11:04:02;100157.16;;;34.26;24.98
64053;BME280;50299;49.524;8.536;2023-06-22T11:06:29;100153.66;;;34.16;25.80
64053;BME280;50299;49.524;8.536;2023-06-22T11:08:56;100152.13;;;34.62;25.37
64053;BME280;50299;49.524;8.536;2023-06-22T11:11:42;100164.13;;;34.81;24.52
64053;BME280;50299;49.524;8.536;2023-06-22T11:14:09;100160.91;;;34.53;24.75
64053;BME280;50299;49.524;8.536;2023-06-22T11:16:35;100155.63;;;34.72;27.08
64053;BME280;50299;49.524;8.536;2023-06-22T11:19:02;100161.09;;;34.70;24.22
64053;BME280;50299;49.524;8.536;2023-06-22T11:21:29;100157.41;;;34.89;24.15
64053;BME280;50299;49.524;8.536;2023-06-22T11:23:56;100150.03;;;34.83;24.75
64053;BME280;50299;49.524;8.536;2023-06-22T11:26:23;100140.66;;;34.62;24.79
64053;BME280;50299;49.524;8.536;2023-06-22T11:28:49;100144.19;;;34.98;25.34
64053;BME280;50299;49.524;8.536;2023-06-22T11:31:16;100144.16;;;35.24;25.50
64053;BME280;50299;49.524;8.536;2023-06-22T11:33:52;100130.44;;;35.39;23.58
64053;BME280;50299;49.524;8.536;2023-06-22T11:36:18;100137.31;;;35.21;24.12
64053;BME280;50299;49.524;8.536;2023-06-22T11:38:45;100137.31;;;35.90;23.58
64053;BME280;50299;49.524;8.536;2023-06-22T11:41:11;100132.31;;;36.33;22.35
64053;BME280;50299;49.524;8.536;2023-06-22T11:43:38;100132.78;;;35.72;22.36
64053;BME280;50299;49.524;8.536;2023-06-22T11:46:04;100139.28;;;35.35;24.63
64053;BME280;50299;49.524;8.536;2023-06-22T11:48:31;100138.19;;;34.75;24.02
64053;BME280;50299;49.524;8.536;2023-06-22T11:50:58;100136.25;;;34.20;25.24
64053;BME280;50299;49.524;8.536;2023-06-22T11:53:26;100147.00;;;34.46;25.42
64053;BME280;50299;49.524;8.536;2023-06-22T11:55:53;100145.38;;;33.83;24.54
64053;BME280;50299;49.524;8.536;2023-06-22T11:58:21;100147.94;;;33.81;26.11
64053;BME280;50299;49.524;8.536;2023-06-22T12:00:48;100144.66;;;33.88;25.90
64053;BME280;50299;49.524;8.536;2023-06-22T12:03:18;100134.53;;;34.28;26.35
64053;BME280;50299;49.524;8.536;2023-06-22T12:05:45;100129.19;;;34.62;24.37
64053;BME280;50299;49.524;8.536;2023-06-22T12:08:11;100122.41;;;34.85;25.01
64053;BME280;50299;49.524;8.536;2023-06-22T12:10:39;100129.78;;;34.72;24.69
64053;BME280;50299;49.524;8.536;2023-06-22T12:13:06;100117.94;;;34.84;24.43
64053;BME280;50299;49.524;8.536;2023-06-22T12:15:33;100125.88;;;34.95;25.78
64053;BME280;50299;49.524;8.536;2023-06-22T12:17:59;100114.91;;;34.94;25.21
64053;BME280;50299;49.524;8.536;2023-06-22T12:20:27;100116.81;;;35.02;24.21
64053;BME280;50299;49.524;8.536;2023-06-22T12:22:54;100120.66;;;35.25;24.20
64053;BME280;50299;49.524;8.536;2023-06-22T12:25:22;100119.22;;;34.57;23.61
64053;BME280;50299;49.524;8.536;2023-06-22T12:27:49;100122.91;;;34.17;24.95
64053;BME280;50299;49.524;8.536;2023-06-22T12:30:16;100122.03;;;34.52;24.87
64053;BME280;50299;49.524;8.536;2023-06-22T12:32:45;100127.88;;;35.15;25.05
64053;BME280;50299;49.524;8.536;2023-06-22T12:35:12;100124.16;;;35.35;23.56
64053;BME280;50299;49.524;8.536;2023-06-22T12:37:41;100124.41;;;35.69;22.93
64053;BME280;50299;49.524;8.536;2023-06-22T12:40:09;100124.88;;;34.98;24.31
64053;BME280;50299;49.524;8.536;2023-06-22T12:42:36;100121.78;;;35.02;24.09
64053;BME280;50299;49.524;8.536;2023-06-22T12:45:03;100123.69;;;34.84;24.22
64053;BME280;50299;49.524;8.536;2023-06-22T12:47:30;100126.78;;;35.07;24.21
64053;BME280;50299;49.524;8.536;2023-06-22T12:49:57;100127.78;;;35.04;23.20
64053;BME280;50299;49.524;8.536;2023-06-22T12:52:24;100127.19;;;34.94;23.67